createdAt,value
2018-08-24T00:09:08.523Z,3.60
2018-08-24T00:11:43.358Z,3.07
2018-08-24T00:14:18.425Z,2.70
2018-08-24T00:16:53.275Z,3.43
2018-08-24T00:19:28.622Z,2.87
2018-08-24T00:22:03.522Z,2.73
2018-08-24T00:24:38.715Z,2.90
2018-08-24T00:27:13.861Z,2.53
2018-08-24T00:29:48.807Z,3.10
2018-08-24T00:32:23.506Z,2.80
2018-08-24T00:34:58.500Z,3.00
2018-08-24T00:37:33.305Z,3.27
2018-08-24T00:40:08.538Z,3.10
2018-08-24T00:42:43.725Z,3.00
2018-08-24T00:45:19.119Z,2.97
2018-08-24T00:47:53.994Z,2.77
2018-08-24T00:50:29.236Z,3.50
2018-08-24T00:53:04.089Z,4.10
2018-08-24T00:55:39.255Z,4.13
2018-08-24T00:58:14.213Z,4.00
2018-08-24T01:00:49.242Z,3.60
2018-08-24T01:03:24.250Z,4.03
2018-08-24T01:05:59.877Z,4.50
2018-08-24T01:08:35.072Z,4.90
2018-08-24T01:11:10.013Z,5.50
2018-08-24T01:13:49.324Z,6.30
2018-08-24T01:16:29.516Z,7.00
2018-08-24T01:19:04.930Z,6.67
2018-08-24T01:21:40.429Z,7.00
2018-08-24T01:24:16.141Z,8.40
2018-08-24T01:26:56.303Z,8.27
2018-08-24T01:29:32.846Z,8.17
2018-08-24T01:32:08.129Z,8.27
2018-08-24T01:34:43.411Z,8.03
2018-08-24T01:37:19.180Z,8.60
2018-08-24T01:39:54.335Z,8.57
2018-08-24T01:42:29.239Z,9.20
2018-08-24T01:45:04.112Z,9.97
2018-08-24T01:47:39.923Z,9.20
2018-08-24T01:50:15.186Z,10.23
2018-08-24T01:52:50.344Z,10.00
2018-08-24T01:55:25.757Z,10.40
2018-08-24T01:58:00.819Z,10.40
2018-08-24T02:00:36.698Z,11.83
2018-08-24T02:03:11.982Z,11.57
2018-08-24T02:05:47.204Z,11.80
2018-08-24T02:08:31.725Z,12.10
2018-08-24T02:11:12.450Z,12.30
2018-08-24T02:13:52.880Z,12.50
2018-08-24T02:16:32.260Z,12.90
2018-08-24T02:19:09.849Z,13.47
2018-08-24T02:21:50.405Z,14.00
2018-08-24T02:24:25.519Z,14.00
2018-08-24T02:27:00.354Z,13.80
2018-08-24T02:29:35.591Z,14.67
2018-08-24T02:32:10.945Z,15.57
2018-08-24T02:34:46.191Z,15.90
2018-08-24T02:37:21.280Z,15.70
2018-08-24T02:40:02.935Z,17.07
2018-08-24T02:42:38.013Z,17.20
2018-08-24T02:45:13.318Z,17.77
2018-08-24T02:47:48.850Z,19.20
2018-08-24T02:50:24.235Z,19.40
2018-08-24T02:52:59.267Z,20.77
2018-08-24T02:55:34.367Z,19.40
2018-08-24T02:58:09.094Z,18.93
2018-08-24T03:00:44.200Z,20.50
2018-08-24T03:03:19.109Z,20.47
2018-08-24T03:05:54.296Z,19.00
2018-08-24T03:08:29.744Z,17.10
2018-08-24T03:11:05.509Z,17.60
2018-08-24T03:13:34.806Z,17.50
2018-08-24T03:16:10.013Z,17.30
2018-08-24T03:18:45.080Z,16.20
2018-08-24T03:21:19.851Z,16.10
2018-08-24T03:23:55.215Z,13.70
2018-08-24T03:26:30.146Z,13.20
2018-08-24T03:29:05.386Z,13.33
2018-08-24T03:31:40.508Z,12.60
2018-08-24T03:34:16.134Z,12.33
2018-08-24T03:36:51.094Z,12.77
2018-08-24T03:39:26.350Z,10.90
2018-08-24T03:42:01.895Z,10.63
2018-08-24T03:44:36.842Z,9.73
2018-08-24T03:47:11.821Z,9.77
2018-08-24T03:49:46.609Z,9.60
2018-08-24T03:52:21.777Z,8.83
2018-08-24T03:54:56.889Z,9.53
2018-08-24T03:57:31.874Z,8.77
2018-08-24T04:00:08.678Z,8.97
2018-08-24T04:02:44.000Z,10.37
2018-08-24T04:05:19.119Z,9.93
2018-08-24T04:07:48.650Z,10.67
2018-08-24T04:10:24.924Z,10.60
2018-08-24T04:12:59.883Z,10.53
2018-08-24T04:15:34.945Z,11.40
2018-08-24T04:18:10.214Z,11.43
2018-08-24T04:20:45.128Z,10.50
2018-08-24T04:23:27.243Z,11.40
2018-08-24T04:26:02.355Z,10.63
2018-08-24T04:28:37.556Z,10.60
2018-08-24T04:31:12.645Z,10.70
2018-08-24T04:33:47.738Z,10.60
2018-08-24T04:36:22.783Z,10.20
2018-08-24T04:38:58.169Z,12.33
2018-08-24T04:41:33.223Z,11.90
2018-08-24T04:44:08.351Z,12.70
2018-08-24T04:46:43.390Z,12.10
2018-08-24T04:49:18.718Z,11.90
2018-08-24T04:51:53.980Z,14.10
2018-08-24T04:54:29.015Z,14.37
2018-08-24T04:57:04.248Z,13.50
2018-08-24T04:59:39.382Z,14.90
2018-08-24T05:02:14.158Z,13.93
2018-08-24T05:04:48.929Z,14.87
2018-08-24T05:07:24.928Z,14.47
2018-08-24T05:09:59.697Z,14.00
2018-08-24T05:12:35.284Z,15.30
2018-08-24T05:15:10.011Z,14.80
2018-08-24T05:17:45.078Z,15.03
2018-08-24T05:20:19.971Z,16.33
2018-08-24T05:22:54.824Z,16.20
2018-08-24T05:25:30.111Z,16.97
2018-08-24T05:28:05.321Z,16.70
2018-08-24T05:30:40.563Z,15.20
2018-08-24T05:33:15.735Z,15.57
2018-08-24T05:35:50.684Z,16.30
2018-08-24T05:38:25.857Z,15.83
2018-08-24T05:41:01.381Z,15.63
2018-08-24T05:43:36.419Z,16.80
2018-08-24T05:46:06.418Z,16.53
2018-08-24T05:48:42.038Z,16.70
2018-08-24T05:51:12.204Z,17.17
2018-08-24T05:53:41.672Z,17.70
2018-08-24T05:56:11.263Z,17.40
2018-08-24T05:58:40.701Z,18.43
2018-08-24T06:01:10.708Z,17.40
2018-08-24T06:03:40.259Z,18.23
2018-08-24T06:06:10.374Z,17.70
2018-08-24T06:08:39.719Z,18.37
2018-08-24T06:11:09.582Z,18.43
2018-08-24T06:13:39.691Z,19.30
2018-08-24T06:16:09.216Z,19.57
2018-08-24T06:18:38.641Z,18.50
2018-08-24T06:21:09.257Z,18.93
2018-08-24T06:23:42.726Z,19.73
2018-08-24T06:26:12.241Z,19.97
2018-08-24T06:28:42.454Z,18.50
2018-08-24T06:31:11.980Z,19.10
2018-08-24T06:33:41.338Z,19.17
2018-08-24T06:36:11.079Z,19.37
2018-08-24T06:38:41.283Z,20.23
2018-08-24T06:41:10.771Z,20.53
2018-08-24T06:43:40.306Z,20.30
2018-08-24T06:46:10.631Z,20.87
2018-08-24T06:48:39.826Z,19.57
2018-08-24T06:51:09.431Z,20.13
2018-08-24T06:53:39.060Z,19.07
2018-08-24T06:56:14.363Z,18.90
2018-08-24T06:58:49.711Z,19.83
2018-08-24T07:01:25.067Z,20.37
2018-08-24T07:04:00.156Z,20.50
2018-08-24T07:06:35.349Z,20.23
2018-08-24T07:09:10.685Z,19.67
2018-08-24T07:11:39.986Z,20.67
2018-08-24T07:14:10.064Z,19.50
2018-08-24T07:16:39.655Z,20.30
2018-08-24T07:19:09.280Z,20.07
2018-08-24T07:21:39.365Z,21.07
2018-08-24T07:24:09.219Z,21.40
2018-08-24T07:26:38.515Z,19.57
2018-08-24T07:29:20.372Z,20.50
2018-08-24T07:31:55.248Z,20.00
2018-08-24T07:34:30.271Z,19.30
2018-08-24T07:37:05.995Z,21.27
2018-08-24T07:39:41.253Z,20.50
2018-08-24T07:42:16.221Z,21.30
2018-08-24T07:44:52.513Z,22.57
2018-08-24T07:47:27.980Z,22.40
2018-08-24T07:50:03.574Z,23.20
2018-08-24T07:52:39.620Z,24.63
2018-08-24T07:55:14.763Z,23.40
2018-08-24T07:57:50.245Z,25.00
2018-08-24T08:00:25.292Z,24.90
2018-08-24T08:03:00.579Z,22.50
2018-08-24T08:05:35.777Z,22.13
2018-08-24T08:08:11.969Z,23.20
2018-08-24T08:10:47.435Z,21.40
2018-08-24T08:13:22.756Z,20.27
2018-08-24T08:15:57.756Z,19.63
2018-08-24T08:18:32.915Z,19.37
2018-08-24T08:21:08.235Z,16.77
2018-08-24T08:23:43.384Z,17.20
2018-08-24T08:26:18.209Z,16.10
2018-08-24T08:28:53.264Z,15.70
2018-08-24T08:31:28.256Z,14.13
2018-08-24T08:34:03.312Z,12.10
2018-08-24T08:36:38.583Z,11.43
2018-08-24T08:39:13.847Z,9.77
2018-08-24T08:41:49.303Z,10.40
2018-08-24T08:44:24.773Z,8.83
2018-08-24T08:47:00.608Z,8.17
2018-08-24T08:49:35.617Z,8.10
2018-08-24T08:52:11.445Z,7.40
2018-08-24T08:54:46.243Z,6.93
2018-08-24T08:57:21.564Z,6.70
2018-08-24T08:59:56.746Z,7.50
2018-08-24T09:02:31.830Z,7.03
2018-08-24T09:05:07.174Z,7.07
2018-08-24T09:07:42.045Z,7.93
2018-08-24T09:10:17.323Z,8.40
2018-08-24T09:12:52.432Z,7.60
2018-08-24T09:15:27.834Z,8.17
2018-08-24T09:18:07.956Z,8.90
2018-08-24T09:20:48.080Z,8.47
2018-08-24T09:23:28.292Z,7.20
2018-08-24T09:26:08.493Z,8.17
2018-08-24T09:28:44.166Z,7.60
2018-08-24T09:31:23.366Z,7.10
2018-08-24T09:33:58.365Z,6.40
2018-08-24T09:36:34.213Z,7.80
2018-08-24T09:39:11.208Z,5.80
2018-08-24T09:41:46.267Z,5.00
2018-08-24T09:44:28.316Z,4.50
2018-08-24T09:47:09.301Z,4.70
2018-08-24T09:49:44.523Z,4.30
2018-08-24T09:52:25.023Z,4.00
2018-08-24T09:55:06.374Z,4.20
2018-08-24T09:57:41.577Z,4.83
2018-08-24T10:00:16.498Z,4.57
2018-08-24T10:02:52.345Z,4.70
2018-08-24T10:05:32.873Z,4.60
2018-08-24T10:09:11.759Z,4.23
2018-08-24T10:11:46.642Z,4.00
2018-08-24T10:14:20.079Z,4.03
2018-08-24T10:16:49.886Z,4.20
2018-08-24T10:19:20.417Z,3.70
2018-08-24T10:21:50.010Z,4.10
2018-08-24T10:24:19.262Z,3.53
2018-08-24T10:26:48.634Z,4.10
2018-08-24T10:29:17.972Z,3.53
2018-08-24T10:31:47.806Z,3.57
2018-08-24T10:34:17.404Z,3.63
2018-08-24T10:36:46.955Z,3.07
2018-08-24T10:39:16.470Z,2.97
2018-08-24T10:41:51.545Z,3.07
2018-08-24T10:44:26.877Z,3.70
2018-08-24T10:46:57.604Z,3.63
2018-08-24T10:49:27.375Z,3.03
2018-08-24T10:51:57.702Z,3.60
2018-08-24T10:54:27.777Z,3.40
2018-08-24T10:56:57.053Z,3.40
2018-08-24T10:59:27.262Z,2.90
2018-08-24T11:01:56.941Z,3.13
2018-08-24T11:04:32.060Z,3.37
2018-08-24T11:07:07.611Z,2.67
2018-08-24T11:09:42.545Z,3.40
2018-08-24T11:12:17.785Z,2.83
2018-08-24T11:14:53.164Z,2.40
2018-08-24T11:17:32.431Z,2.60
2018-08-24T11:20:07.442Z,2.40
2018-08-24T11:22:42.523Z,2.90
2018-08-24T11:25:17.617Z,2.90
2018-08-24T11:27:52.914Z,2.47
2018-08-24T11:30:28.324Z,3.27
2018-08-24T11:33:03.445Z,2.63
2018-08-24T11:35:38.730Z,2.97
2018-08-24T11:38:13.881Z,2.87
2018-08-24T11:40:48.820Z,2.90
2018-08-24T11:43:23.972Z,3.00
2018-08-24T11:45:59.532Z,2.70
2018-08-24T11:48:34.633Z,3.30
2018-08-24T11:51:09.660Z,3.57
2018-08-24T11:53:44.700Z,3.30
2018-08-24T11:56:19.874Z,3.33
2018-08-24T11:58:55.023Z,3.03
2018-08-24T12:01:30.380Z,3.10
2018-08-24T12:04:05.719Z,3.20
2018-08-24T12:06:40.770Z,3.50
2018-08-24T12:09:16.012Z,3.17
2018-08-24T12:11:51.136Z,2.90
2018-08-24T12:14:25.904Z,2.87
2018-08-24T12:16:55.469Z,2.80
2018-08-24T12:19:24.942Z,3.23
2018-08-24T12:21:54.512Z,3.30
2018-08-24T12:24:24.323Z,3.40
2018-08-24T12:26:54.039Z,3.30
2018-08-24T12:29:23.686Z,3.27
2018-08-24T12:31:53.330Z,3.17
2018-08-24T12:34:22.909Z,3.70
2018-08-24T12:36:53.178Z,3.10
2018-08-24T12:39:23.153Z,2.70
2018-08-24T12:41:53.911Z,3.87
2018-08-24T12:44:24.081Z,3.10
2018-08-24T12:46:53.362Z,3.00
2018-08-24T12:49:22.595Z,3.37
2018-08-24T12:51:52.491Z,3.97
2018-08-24T12:54:21.899Z,4.03
2018-08-24T12:56:52.143Z,3.80
2018-08-24T12:59:21.646Z,3.73
2018-08-24T13:01:51.254Z,4.10
2018-08-24T13:04:20.756Z,3.27
2018-08-24T13:06:55.439Z,3.57
2018-08-24T13:09:25.125Z,3.30
2018-08-24T13:11:54.956Z,3.50
2018-08-24T13:14:24.295Z,3.77
2018-08-24T13:16:53.715Z,3.20
2018-08-24T13:19:23.232Z,3.00
2018-08-24T13:21:52.533Z,2.83
2018-08-24T13:24:27.867Z,3.03
2018-08-24T13:27:02.919Z,2.87
2018-08-24T13:29:37.773Z,3.00
2018-08-24T13:32:12.925Z,2.83
2018-08-24T13:34:47.966Z,2.40
2018-08-24T13:37:17.694Z,2.27
2018-08-24T13:39:53.546Z,2.30
2018-08-24T13:42:28.561Z,2.17
2018-08-24T13:44:58.511Z,2.93
2018-08-24T13:47:33.846Z,2.53
2018-08-24T13:50:09.083Z,2.00
2018-08-24T13:52:44.762Z,2.87
2018-08-24T13:55:19.835Z,2.50
2018-08-24T13:57:56.168Z,2.43
2018-08-24T14:00:26.081Z,2.73
2018-08-24T14:02:56.473Z,3.00
2018-08-24T14:05:26.001Z,3.20
2018-08-24T14:08:07.639Z,2.80
2018-08-24T14:10:42.575Z,2.77
2018-08-24T14:13:17.435Z,2.90
2018-08-24T14:15:52.661Z,2.30
2018-08-24T14:18:27.973Z,2.97
2018-08-24T14:21:03.874Z,2.63
2018-08-24T14:23:38.882Z,2.37
2018-08-24T14:26:14.086Z,3.00
2018-08-24T14:28:49.087Z,3.07
2018-08-24T14:31:24.293Z,2.90
2018-08-24T14:33:59.210Z,2.80
2018-08-24T14:36:34.321Z,3.10
2018-08-24T14:39:10.810Z,2.73
2018-08-24T14:41:46.119Z,3.13
2018-08-24T14:44:21.260Z,3.00
2018-08-24T14:46:56.637Z,2.87
2018-08-24T14:49:26.201Z,3.30
2018-08-24T14:51:55.979Z,3.10
2018-08-24T14:54:25.476Z,2.97
2018-08-24T14:56:54.729Z,3.10
2018-08-24T14:59:24.669Z,3.47
2018-08-24T15:01:54.325Z,2.47
2018-08-24T15:04:23.944Z,2.90
2018-08-24T15:06:53.644Z,2.97
2018-08-24T15:09:23.470Z,3.10
2018-08-24T15:11:53.881Z,2.93
2018-08-24T15:14:23.143Z,2.70
2018-08-24T15:16:53.035Z,3.00
2018-08-24T15:19:22.469Z,3.17
2018-08-24T15:21:52.496Z,3.63
2018-08-24T15:24:21.908Z,3.00
2018-08-24T15:26:51.926Z,2.47
2018-08-24T15:29:21.401Z,3.10
2018-08-24T15:31:51.346Z,3.03
2018-08-24T15:34:20.976Z,2.97
2018-08-24T15:36:50.950Z,2.60
2018-08-24T15:39:20.941Z,2.97
2018-08-24T15:41:50.449Z,3.00
2018-08-24T15:44:20.998Z,2.80
2018-08-24T15:46:50.243Z,2.97
2018-08-24T15:49:19.685Z,2.60
2018-08-24T15:51:49.283Z,3.30
2018-08-24T15:54:19.318Z,2.70
2018-08-24T15:56:48.736Z,2.70
2018-08-24T15:59:18.285Z,2.50
2018-08-24T16:01:47.838Z,3.03
2018-08-24T16:04:17.303Z,2.60
2018-08-24T16:06:46.767Z,2.60
2018-08-24T16:09:22.343Z,2.43
2018-08-24T16:11:57.544Z,2.70
2018-08-24T16:14:32.463Z,3.17
2018-08-24T16:17:07.704Z,2.30
2018-08-24T16:19:42.532Z,2.60
2018-08-24T16:22:17.750Z,2.10
2018-08-24T16:24:53.244Z,3.10
2018-08-24T16:27:28.190Z,3.03
2018-08-24T16:30:03.021Z,2.60
2018-08-24T16:32:38.151Z,2.53
2018-08-24T16:35:13.220Z,2.70
2018-08-24T16:37:48.233Z,2.20
2018-08-24T16:40:23.348Z,2.40
2018-08-24T16:42:58.592Z,2.23
2018-08-24T16:45:33.703Z,2.10
2018-08-24T16:48:08.904Z,2.50
2018-08-24T16:50:43.794Z,2.37
2018-08-24T16:53:18.912Z,2.37
2018-08-24T16:55:54.377Z,2.83
2018-08-24T16:58:29.835Z,2.67
2018-08-24T17:01:05.150Z,2.37
2018-08-24T17:03:40.731Z,2.80
2018-08-24T17:06:15.936Z,2.37
2018-08-24T17:08:51.120Z,2.53
2018-08-24T17:11:26.299Z,2.60
2018-08-24T17:14:04.430Z,2.80
2018-08-24T17:16:39.755Z,2.43
2018-08-24T17:19:15.010Z,2.40
2018-08-24T17:21:50.232Z,2.50
2018-08-24T17:24:25.834Z,2.77
2018-08-24T17:27:00.957Z,2.70
2018-08-24T17:29:32.272Z,2.83
2018-08-24T17:32:07.520Z,2.57
2018-08-24T17:34:42.709Z,2.63
2018-08-24T17:37:18.712Z,2.47
2018-08-24T17:39:54.097Z,2.60
2018-08-24T17:42:29.436Z,3.40
2018-08-24T17:45:05.483Z,2.80
2018-08-24T17:47:35.150Z,2.70
2018-08-24T17:50:04.905Z,3.10
2018-08-24T17:52:34.681Z,3.10
2018-08-24T17:55:04.479Z,2.80
2018-08-24T17:57:34.210Z,2.50
2018-08-24T18:00:09.331Z,3.03
2018-08-24T18:02:44.299Z,2.80
2018-08-24T18:05:20.181Z,2.83
2018-08-24T18:07:55.553Z,2.43
2018-08-24T18:10:30.810Z,2.90
2018-08-24T18:13:06.346Z,3.10
2018-08-24T18:15:41.108Z,2.93
2018-08-24T18:18:16.560Z,2.63
2018-08-24T18:20:51.559Z,2.77
2018-08-24T18:23:27.128Z,2.80
2018-08-24T18:26:02.166Z,3.00
2018-08-24T18:28:37.028Z,2.50
2018-08-24T18:31:07.648Z,2.50
2018-08-24T18:33:37.189Z,2.50
2018-08-24T18:36:06.580Z,2.93
2018-08-24T18:38:35.774Z,2.73
2018-08-24T18:41:05.912Z,3.13
2018-08-24T18:43:35.543Z,3.27
2018-08-24T18:46:05.545Z,2.60
2018-08-24T18:48:36.069Z,2.77
2018-08-24T18:51:05.505Z,3.23
2018-08-24T18:53:34.965Z,2.97
2018-08-24T18:56:04.455Z,3.10
2018-08-24T18:58:34.057Z,2.53
2018-08-24T19:01:03.495Z,3.53
2018-08-24T19:03:33.336Z,2.87
2018-08-24T19:06:02.735Z,3.10
2018-08-24T19:08:40.752Z,2.77
2018-08-24T19:11:20.905Z,2.53
2018-08-24T19:13:55.681Z,3.23
2018-08-24T19:16:31.169Z,2.67
2018-08-24T19:19:05.825Z,2.93
2018-08-24T19:21:41.410Z,2.93
2018-08-24T19:24:11.351Z,3.27
2018-08-24T19:26:40.877Z,3.10
2018-08-24T19:29:15.546Z,3.10
2018-08-24T19:31:44.787Z,2.90
2018-08-24T19:34:14.158Z,3.07
2018-08-24T19:36:43.902Z,2.67
2018-08-24T19:39:14.757Z,2.93
2018-08-24T19:41:49.472Z,3.10
2018-08-24T19:44:18.632Z,2.67
2018-08-24T19:46:53.961Z,3.50
2018-08-24T19:49:28.811Z,2.93
2018-08-24T19:52:04.046Z,2.70
2018-08-24T19:54:40.085Z,2.60
2018-08-24T19:57:20.275Z,2.47
2018-08-24T19:59:49.756Z,2.90
2018-08-24T20:02:25.317Z,3.07
2018-08-24T20:05:00.263Z,3.10
2018-08-24T20:07:40.335Z,3.10
2018-08-24T20:10:16.607Z,2.97
2018-08-24T20:12:51.712Z,2.80
2018-08-24T20:15:31.964Z,2.77
2018-08-24T20:18:07.851Z,2.80
2018-08-24T20:20:43.087Z,3.23
2018-08-24T20:23:17.880Z,2.63
2018-08-24T20:25:52.998Z,2.80
2018-08-24T20:28:28.262Z,2.53
2018-08-24T20:31:03.889Z,2.93
2018-08-24T20:33:38.850Z,3.27
2018-08-24T20:36:14.082Z,3.10
2018-08-24T20:38:49.511Z,3.70
2018-08-24T20:41:24.588Z,3.40
2018-08-24T20:43:59.614Z,3.30
2018-08-24T20:46:34.518Z,3.03
2018-08-24T20:49:09.944Z,3.47
2018-08-24T20:51:45.412Z,3.20
2018-08-24T20:54:20.480Z,3.53
2018-08-24T20:56:55.443Z,3.20
2018-08-24T20:59:30.818Z,3.33
2018-08-24T21:02:12.900Z,3.20
2018-08-24T21:04:48.157Z,2.93
2018-08-24T21:07:23.194Z,3.30
2018-08-24T21:09:57.988Z,3.30
2018-08-24T21:12:32.955Z,3.07
2018-08-24T21:15:08.316Z,3.60
2018-08-24T21:17:43.211Z,3.40
2018-08-24T21:20:18.206Z,3.50
2018-08-24T21:22:53.390Z,3.97
2018-08-24T21:25:28.629Z,3.07
2018-08-24T21:28:04.021Z,3.17
2018-08-24T21:30:39.076Z,3.20
2018-08-24T21:33:14.114Z,3.40
2018-08-24T21:35:49.123Z,2.70
2018-08-24T21:38:24.105Z,3.00
2018-08-24T21:40:58.832Z,3.70
2018-08-24T21:43:34.290Z,3.13
2018-08-24T21:46:09.005Z,3.23
2018-08-24T21:48:44.752Z,3.57
2018-08-24T21:51:20.177Z,3.20
2018-08-24T21:53:49.506Z,2.90
2018-08-24T21:56:24.665Z,3.30
2018-08-24T21:58:59.691Z,3.43
2018-08-24T22:01:35.246Z,3.10
2018-08-24T22:04:10.338Z,3.07
2018-08-24T22:06:45.416Z,4.00
2018-08-24T22:09:15.044Z,3.13
2018-08-24T22:11:50.274Z,3.10
2018-08-24T22:14:25.204Z,3.20
2018-08-24T22:17:00.032Z,3.50
2018-08-24T22:19:34.985Z,3.23
2018-08-24T22:22:09.842Z,3.10
2018-08-24T22:24:45.306Z,3.80
2018-08-24T22:27:20.432Z,2.93
2018-08-24T22:29:55.682Z,3.00
2018-08-24T22:32:37.291Z,2.23
2018-08-24T22:35:12.490Z,2.77
2018-08-24T22:37:48.140Z,2.77
2018-08-24T22:40:23.958Z,2.87
2018-08-24T22:42:59.278Z,2.60
2018-08-24T22:45:34.078Z,3.00
2018-08-24T22:48:09.528Z,2.50
2018-08-24T22:50:44.483Z,2.40
2018-08-24T22:53:19.460Z,2.50
2018-08-24T22:55:54.505Z,2.60
2018-08-24T22:58:29.580Z,2.93
2018-08-24T23:01:04.543Z,2.60
2018-08-24T23:03:39.606Z,2.63
2018-08-24T23:06:14.970Z,2.83
2018-08-24T23:08:49.934Z,2.43
2018-08-24T23:11:25.054Z,2.20
2018-08-24T23:14:00.072Z,2.50
2018-08-24T23:16:35.147Z,2.53
2018-08-24T23:19:10.152Z,2.60
2018-08-24T23:21:45.194Z,2.60
2018-08-24T23:24:20.346Z,2.67
2018-08-24T23:26:55.196Z,2.40
2018-08-24T23:29:30.030Z,2.37
2018-08-24T23:32:05.424Z,2.43
2018-08-24T23:34:34.721Z,2.33
2018-08-24T23:37:09.668Z,2.50
2018-08-24T23:39:47.834Z,2.40
2018-08-24T23:42:23.111Z,2.57
2018-08-24T23:44:57.871Z,2.97
2018-08-24T23:47:33.002Z,3.00
2018-08-24T23:50:07.701Z,3.07
2018-08-24T23:52:42.986Z,3.37
2018-08-24T23:55:18.115Z,2.40
2018-08-24T23:57:53.204Z,2.50
